Time;durP1;ratioP1;P1;durP2;ratioP2;P2;SDS_P1;SDS_P2;PMS_P1;PMS_P2;Temp;Humidity;BMP_temperature;BMP_pressure;BME280_temperature;BME280_humidity;BME280_pressure;Samples;Min_cycle;Max_cycle;Signal;HPM_P1;HPM_P2
2023/05/07 00:01:46;;;;;;;6.53;4.82;;;;;;;14.32;100.00;101121.19;4990403;28;20515;-63
2023/05/07 00:04:13;;;;;;;6.93;4.57;;;;;;;14.29;100.00;101110.84;4987637;28;20045;-63
2023/05/07 00:06:38;;;;;;;6.15;4.90;;;;;;;14.27;100.00;101111.78;4988675;28;20384;-63
2023/05/07 00:09:04;;;;;;;6.72;4.85;;;;;;;14.26;100.00;101117.84;4987566;28;20049;-62
2023/05/07 00:11:29;;;;;;;7.47;5.05;;;;;;;14.24;100.00;101120.50;4986759;28;20037;-63
2023/05/07 00:13:55;;;;;;;9.65;5.50;;;;;;;14.22;100.00;101119.63;4993283;28;20045;-63
2023/05/07 00:16:20;;;;;;;9.07;4.82;;;;;;;14.21;100.00;101115.34;4990356;28;20519;-62
2023/05/07 00:18:46;;;;;;;7.72;4.75;;;;;;;14.22;100.00;101116.22;4987932;28;20045;-63
2023/05/07 00:21:11;;;;;;;6.72;4.78;;;;;;;14.22;100.00;101113.59;4987605;28;20530;-63
2023/05/07 00:23:36;;;;;;;10.02;5.05;;;;;;;14.23;100.00;101116.16;4989105;28;20742;-62
2023/05/07 00:26:03;;;;;;;6.82;5.25;;;;;;;14.25;100.00;101110.91;4989991;28;20051;-62
2023/05/07 00:28:28;;;;;;;6.68;5.03;;;;;;;14.25;100.00;101116.97;4983158;28;20038;-62
2023/05/07 00:30:53;;;;;;;5.80;4.65;;;;;;;14.26;100.00;101123.91;4990307;28;20472;-63
2023/05/07 00:33:20;;;;;;;6.03;4.90;;;;;;;14.26;100.00;101117.84;4981107;28;21062;-62
2023/05/07 00:35:45;;;;;;;6.25;4.60;;;;;;;14.26;100.00;101128.25;4991241;28;20030;-62
2023/05/07 00:38:11;;;;;;;5.18;3.88;;;;;;;14.27;100.00;101122.16;4988226;28;20041;-63
2023/05/07 00:40:36;;;;;;;5.70;4.57;;;;;;;14.28;100.00;101123.88;4990305;28;20037;-62
2023/05/07 00:43:02;;;;;;;9.52;4.97;;;;;;;14.31;100.00;101122.06;4983991;28;20046;-63
2023/05/07 00:45:28;;;;;;;6.40;5.30;;;;;;;14.33;100.00;101114.25;4982292;28;20087;-63
2023/05/07 00:47:58;;;;;;;8.50;4.72;;;;;;;14.34;100.00;101110.75;4988201;28;20038;-62
2023/05/07 00:50:25;;;;;;;6.93;4.50;;;;;;;14.32;100.00;101116.00;4984234;28;20045;-62
2023/05/07 00:52:51;;;;;;;11.20;5.70;;;;;;;14.31;100.00;101118.63;4985172;28;20125;-62
2023/05/07 00:55:17;;;;;;;6.07;4.45;;;;;;;14.31;100.00;101122.06;4990025;28;20050;-63
2023/05/07 00:57:44;;;;;;;8.88;5.03;;;;;;;14.30;100.00;101112.59;4987850;28;20037;-63
2023/05/07 01:00:11;;;;;;;4.60;4.05;;;;;;;14.30;100.00;101122.97;4984540;28;20089;-63
2023/05/07 01:02:38;;;;;;;6.05;4.32;;;;;;;14.30;100.00;101116.91;4981339;28;20048;-62
2023/05/07 01:05:05;;;;;;;6.15;4.63;;;;;;;14.30;100.00;101116.91;4989217;28;20674;-63
2023/05/07 01:07:32;;;;;;;7.85;4.90;;;;;;;14.29;100.00;101113.47;4991447;28;20104;-63
2023/05/07 01:09:58;;;;;;;6.18;4.68;;;;;;;14.28;100.00;101110.88;4989371;28;20442;-63
2023/05/07 01:12:25;;;;;;;4.93;4.43;;;;;;;14.27;100.00;101110.03;4983562;28;20042;-62
2023/05/07 01:14:51;;;;;;;6.53;4.60;;;;;;;14.27;100.00;101104.84;4987378;28;20030;-63
2023/05/07 01:17:17;;;;;;;8.70;5.22;;;;;;;14.26;100.00;101110.03;4994589;28;20447;-63
2023/05/07 01:19:44;;;;;;;6.70;5.47;;;;;;;14.23;100.00;101103.16;4986128;28;20156;-62
2023/05/07 01:22:11;;;;;;;8.23;4.95;;;;;;;14.22;100.00;101104.03;4989489;28;20041;-63
2023/05/07 01:24:37;;;;;;;5.40;4.50;;;;;;;14.19;100.00;101098.88;4988176;28;20042;-63
2023/05/07 01:27:03;;;;;;;9.73;5.10;;;;;;;14.18;100.00;101099.78;4989507;28;20037;-63
2023/05/07 01:29:29;;;;;;;8.68;5.00;;;;;;;14.15;100.00;101094.66;4984725;28;20043;-63
2023/05/07 01:31:57;;;;;;;6.78;4.72;;;;;;;14.12;100.00;101092.09;4985474;28;20406;-62
2023/05/07 01:34:25;;;;;;;5.22;4.40;;;;;;;14.10;100.00;101089.53;5018629;28;20267;-63
2023/05/07 01:36:52;;;;;;;5.72;4.40;;;;;;;14.09;100.00;101092.16;4989753;28;20458;-63
2023/05/07 01:39:18;;;;;;;13.05;4.55;;;;;;;14.08;100.00;101086.09;4987531;28;20026;-63
2023/05/07 01:41:43;;;;;;;6.97;4.90;;;;;;;14.06;100.00;101087.00;4990378;28;20314;-64
2023/05/07 01:44:10;;;;;;;5.85;4.25;;;;;;;14.04;100.00;101084.44;4979501;28;20042;-63
2023/05/07 01:46:36;;;;;;;6.00;4.40;;;;;;;14.03;100.00;101085.31;4986566;28;20824;-63
2023/05/07 01:49:02;;;;;;;8.63;4.40;;;;;;;14.05;100.00;101095.69;4983496;28;20145;-63
2023/05/07 01:51:27;;;;;;;5.57;4.22;;;;;;;14.05;100.00;101095.69;4979518;28;20404;-63
2023/05/07 01:53:53;;;;;;;9.85;4.68;;;;;;;14.04;100.00;101089.63;4981978;28;20045;-62
2023/05/07 01:56:19;;;;;;;5.53;4.20;;;;;;;14.06;100.00;101089.63;4987409;28;20133;-63
2023/05/07 01:58:46;;;;;;;5.28;4.38;;;;;;;14.04;100.00;101083.56;4983360;28;20057;-63
2023/05/07 02:01:13;;;;;;;10.38;6.18;;;;;;;14.04;100.00;101075.75;4985444;28;20471;-63
2023/05/07 02:03:39;;;;;;;6.38;5.13;;;;;;;14.04;100.00;101070.56;4981945;28;20042;-63
2023/05/07 02:06:04;;;;;;;8.77;6.03;;;;;;;14.04;100.00;101074.03;4989107;28;20057;-62
2023/05/07 02:08:30;;;;;;;7.45;5.93;;;;;;;14.05;100.00;101069.69;4985245;28;20099;-63
2023/05/07 02:10:56;;;;;;;7.63;5.57;;;;;;;14.05;100.00;101069.69;4982754;28;20084;-66
2023/05/07 02:13:22;;;;;;;7.57;5.60;;;;;;;14.05;100.00;101072.28;4986912;28;20050;-66
2023/05/07 02:15:50;;;;;;;8.45;6.22;;;;;;;14.05;100.00;101075.75;4989095;28;20740;-65
2023/05/07 02:18:17;;;;;;;9.20;6.53;;;;;;;14.06;100.00;101080.09;4981908;28;20486;-66
2023/05/07 02:20:42;;;;;;;10.35;7.28;;;;;;;14.07;100.00;101080.91;4988620;28;20029;-66
2023/05/07 02:23:08;;;;;;;10.77;7.80;;;;;;;14.10;100.00;101075.66;4993633;28;20038;-65
2023/05/07 02:25:33;;;;;;;11.68;7.07;;;;;;;14.11;100.00;101074.78;4985058;28;20176;-66
2023/05/07 02:27:59;;;;;;;10.02;6.82;;;;;;;14.12;100.00;101076.50;4987178;28;20042;-66
2023/05/07 02:30:25;;;;;;;9.00;5.93;;;;;;;14.11;100.00;101074.78;4988385;28;20040;-66
2023/05/07 02:32:51;;;;;;;9.75;5.93;;;;;;;14.10;100.00;101078.25;4991266;28;20034;-66
2023/05/07 02:35:16;;;;;;;6.35;4.55;;;;;;;14.11;100.00;101079.97;4994295;28;20050;-66
2023/05/07 02:37:41;;;;;;;6.13;4.45;;;;;;;14.10;100.00;101081.72;4991154;28;20042;-67
2023/05/07 02:40:07;;;;;;;7.85;4.43;;;;;;;14.09;100.00;101085.22;4990187;28;20049;-66
2023/05/07 02:42:33;;;;;;;7.50;5.15;;;;;;;14.08;100.00;101085.22;4992828;28;20045;-66
2023/05/07 02:44:58;;;;;;;6.65;5.13;;;;;;;14.08;100.00;101083.50;4996618;28;20091;-65
2023/05/07 02:47:26;;;;;;;8.48;4.85;;;;;;;14.09;100.00;101089.56;4990463;28;20462;-66
2023/05/07 02:49:52;;;;;;;6.43;5.07;;;;;;;14.10;100.00;101094.72;4993934;28;20141;-67
2023/05/07 02:52:18;;;;;;;6.93;5.15;;;;;;;14.09;100.00;101086.97;4990035;28;20046;-66
2023/05/07 02:54:43;;;;;;;8.38;4.97;;;;;;;14.08;100.00;101088.69;4997612;28;20041;-65
2023/05/07 02:57:08;;;;;;;8.73;4.88;;;;;;;14.08;100.00;101093.91;4995641;28;20034;-66
2023/05/07 02:59:34;;;;;;;5.88;4.55;;;;;;;14.08;100.00;101085.22;4985413;28;20053;-65
2023/05/07 03:01:59;;;;;;;9.63;5.32;;;;;;;14.06;100.00;101092.22;4982149;28;20049;-65
2023/05/07 03:04:25;;;;;;;6.15;5.03;;;;;;;14.06;100.00;101087.88;4988976;28;20046;-65
2023/05/07 03:06:50;;;;;;;6.78;5.07;;;;;;;14.04;100.00;101089.63;4990714;28;20046;-65
2023/05/07 03:09:16;;;;;;;7.32;4.35;;;;;;;14.04;100.00;101078.38;4988571;28;20116;-66
2023/05/07 03:11:42;;;;;;;5.80;4.57;;;;;;;14.04;100.00;101088.75;4985575;28;20022;-66
2023/05/07 03:14:07;;;;;;;6.63;4.68;;;;;;;14.05;100.00;101082.69;5016555;28;20423;-66
2023/05/07 03:16:32;;;;;;;7.75;4.93;;;;;;;14.03;100.00;101082.72;4984810;28;20095;-64
2023/05/07 03:18:58;;;;;;;6.20;4.95;;;;;;;14.03;100.00;101076.66;4995339;28;20104;-65
2023/05/07 03:21:23;;;;;;;5.05;3.72;;;;;;;13.99;100.00;101078.47;4993566;28;20049;-65
2023/05/07 03:23:49;;;;;;;6.50;4.63;;;;;;;13.96;100.00;101075.06;4986556;28;20083;-64
2023/05/07 03:26:14;;;;;;;6.10;4.70;;;;;;;13.94;100.00;101082.03;4985585;28;20057;-65
2023/05/07 03:28:40;;;;;;;7.60;5.00;;;;;;;13.92;100.00;101070.81;4986795;28;20050;-65
2023/05/07 03:31:05;;;;;;;7.70;4.88;;;;;;;13.91;100.00;101074.28;4988960;28;20052;-65
2023/05/07 03:33:33;;;;;;;8.20;5.15;;;;;;;13.87;100.00;101073.47;4997659;28;20141;-65
2023/05/07 03:35:59;;;;;;;6.00;4.20;;;;;;;13.85;100.00;101064.84;4992171;28;20640;-65
2023/05/07 03:38:24;;;;;;;6.18;4.28;;;;;;;13.84;100.00;101065.72;4991180;28;20061;-65
2023/05/07 03:40:50;;;;;;;8.15;4.70;;;;;;;13.80;100.00;101065.81;4985214;28;21417;-65
2023/05/07 03:43:15;;;;;;;8.85;4.75;;;;;;;13.76;100.00;101067.59;4982411;28;20038;-65
2023/05/07 03:45:42;;;;;;;4.95;4.43;;;;;;;13.76;100.00;101074.53;4983785;28;20045;-65
2023/05/07 03:48:07;;;;;;;11.10;4.43;;;;;;;13.74;100.00;101071.94;4988120;28;20030;-65
2023/05/07 03:50:33;;;;;;;6.03;4.60;;;;;;;13.73;100.00;101070.25;4987152;28;20446;-65
2023/05/07 03:52:58;;;;;;;5.95;4.85;;;;;;;13.75;100.00;101072.81;4987175;28;20415;-65
2023/05/07 03:55:24;;;;;;;5.45;4.28;;;;;;;13.75;100.00;101081.47;4993773;28;20044;-65
2023/05/07 03:57:49;;;;;;;5.55;4.22;;;;;;;13.75;100.00;101083.19;5000407;28;20045;-65
2023/05/07 04:00:15;;;;;;;6.00;4.25;;;;;;;13.75;100.00;101083.19;4991387;28;20037;-65
2023/05/07 04:02:40;;;;;;;7.38;4.43;;;;;;;13.76;100.00;101097.91;4989358;28;20028;-65
2023/05/07 04:05:06;;;;;;;6.10;3.63;;;;;;;13.76;100.00;101092.72;4980969;28;20811;-64
2023/05/07 04:07:31;;;;;;;5.43;3.53;;;;;;;13.76;100.00;101093.59;4993002;28;20027;-65
2023/05/07 04:09:56;;;;;;;6.55;3.63;;;;;;;13.77;100.00;101090.06;4981083;28;20046;-65
2023/05/07 04:12:22;;;;;;;5.82;4.93;;;;;;;13.79;100.00;101084.88;4986426;28;20109;-65
2023/05/07 04:14:47;;;;;;;6.97;4.80;;;;;;;13.82;100.00;101090.03;4988773;28;20040;-65
2023/05/07 04:17:13;;;;;;;11.38;5.78;;;;;;;13.83;100.00;101091.75;4989134;28;20403;-66
2023/05/07 04:19:38;;;;;;;9.38;5.07;;;;;;;13.87;100.00;101090.78;4980306;28;20034;-65
2023/05/07 04:22:03;;;;;;;7.05;4.60;;;;;;;13.89;100.00;101095.06;4988591;28;20038;-65
2023/05/07 04:24:32;;;;;;;6.07;4.47;;;;;;;13.93;100.00;101093.28;4987143;28;20099;-65
2023/05/07 04:26:58;;;;;;;5.38;4.60;;;;;;;13.96;100.00;101099.31;4993236;28;20033;-65
2023/05/07 04:29:24;;;;;;;9.52;5.15;;;;;;;13.99;100.00;101096.66;4986007;28;20038;-65
2023/05/07 04:31:49;;;;;;;7.88;4.25;;;;;;;14.04;100.00;101094.81;4988093;28;20651;-65
2023/05/07 04:34:15;;;;;;;7.85;4.68;;;;;;;14.06;100.00;101092.22;4982707;28;20042;-64
2023/05/07 04:36:42;;;;;;;6.70;4.22;;;;;;;14.04;100.00;101093.97;4989267;28;20057;-65
2023/05/07 04:39:07;;;;;;;6.47;4.78;;;;;;;14.04;100.00;101089.63;4980671;28;20038;-64
2023/05/07 04:41:33;;;;;;;9.85;5.25;;;;;;;14.05;100.00;101090.47;4995647;28;20034;-64
2023/05/07 04:43:58;;;;;;;6.75;4.40;;;;;;;14.06;100.00;101092.22;4978733;28;20046;-64
2023/05/07 04:46:24;;;;;;;5.50;3.90;;;;;;;14.09;100.00;101090.44;4981660;28;20042;-64
2023/05/07 04:48:50;;;;;;;8.20;4.75;;;;;;;14.11;100.00;101092.97;4993731;28;20042;-65
2023/05/07 04:51:15;;;;;;;7.15;4.78;;;;;;;14.12;100.00;101086.91;4984358;28;20053;-65
2023/05/07 04:53:42;;;;;;;8.93;4.40;;;;;;;14.14;100.00;101082.53;4986199;28;20037;-65
2023/05/07 04:56:08;;;;;;;8.13;5.00;;;;;;;14.15;100.00;101086.00;4988273;28;20038;-65
2023/05/07 04:58:33;;;;;;;5.95;4.80;;;;;;;14.17;100.00;101081.63;4981500;28;20048;-65
2023/05/07 05:01:00;;;;;;;5.07;3.90;;;;;;;14.17;99.84;101089.41;4983945;28;20043;-65
2023/05/07 05:03:25;;;;;;;6.82;4.80;;;;;;;14.21;99.80;101085.88;4978686;28;20048;-64
2023/05/07 05:05:51;;;;;;;5.40;3.88;;;;;;;14.27;99.80;101086.63;4977987;28;20038;-64
2023/05/07 05:08:17;;;;;;;7.05;4.57;;;;;;;14.28;98.81;101087.47;4978323;28;20038;-64
2023/05/07 05:10:43;;;;;;;6.45;5.05;;;;;;;14.33;99.15;101085.66;4976023;28;20045;-65
2023/05/07 05:13:09;;;;;;;8.00;4.70;;;;;;;14.40;99.28;101090.72;4983903;28;20099;-65
2023/05/07 05:15:35;;;;;;;7.35;4.07;;;;;;;14.51;99.49;101099.19;4996506;28;20149;-65
2023/05/07 05:18:00;;;;;;;7.68;4.82;;;;;;;14.62;99.13;101096.41;4986150;28;20762;-65
2023/05/07 05:20:26;;;;;;;6.72;3.97;;;;;;;14.75;97.77;101099.63;4986702;28;20046;-64
2023/05/07 05:22:51;;;;;;;6.72;4.25;;;;;;;14.82;97.08;101095.97;4990011;28;20045;-64
2023/05/07 05:25:16;;;;;;;5.32;4.32;;;;;;;14.91;97.25;101101.00;4985562;28;20042;-64
2023/05/07 05:27:42;;;;;;;5.43;4.50;;;;;;;14.97;95.85;101098.28;4982457;28;20038;-64
2023/05/07 05:30:07;;;;;;;6.32;3.97;;;;;;;14.98;95.17;101103.47;4987709;28;20030;-64
2023/05/07 05:32:33;;;;;;;10.13;4.28;;;;;;;15.01;95.43;101094.72;4988658;28;20076;-64
2023/05/07 05:34:58;;;;;;;6.50;4.45;;;;;;;15.04;94.73;101090.31;4986504;28;20069;-65
2023/05/07 05:37:24;;;;;;;5.65;3.25;;;;;;;15.08;94.71;101098.91;4987741;28;20030;-64
2023/05/07 05:39:50;;;;;;;6.57;3.65;;;;;;;15.11;94.63;101098.81;4981813;28;20581;-64
2023/05/07 05:42:15;;;;;;;4.53;3.60;;;;;;;15.12;93.71;101100.56;4978630;28;20026;-65
2023/05/07 05:44:40;;;;;;;7.45;3.42;;;;;;;15.12;93.75;101093.59;4991252;28;20061;-64
2023/05/07 05:47:06;;;;;;;6.28;3.22;;;;;;;15.10;93.59;101102.34;4981034;28;20960;-64
2023/05/07 05:49:31;;;;;;;4.72;3.35;;;;;;;15.14;94.66;101114.38;4977836;28;20045;-63
2023/05/07 05:51:57;;;;;;;3.88;3.30;;;;;;;15.19;94.66;101102.16;5011489;28;20073;-64
2023/05/07 05:54:22;;;;;;;6.95;3.60;;;;;;;15.17;94.01;101098.69;4982629;28;20738;-64
2023/05/07 05:56:47;;;;;;;6.63;3.13;;;;;;;15.20;94.26;101101.22;4994887;28;20680;-65
2023/05/07 05:59:13;;;;;;;5.40;3.40;;;;;;;15.22;93.84;101104.69;4992309;28;20073;-64
2023/05/07 06:01:38;;;;;;;5.90;3.45;;;;;;;15.19;93.99;101095.19;4987715;28;20479;-63
2023/05/07 06:04:04;;;;;;;4.30;3.10;;;;;;;15.27;93.89;101095.00;4989128;28;20530;-63
2023/05/07 06:06:30;;;;;;;5.28;3.22;;;;;;;15.38;93.08;101095.63;4988392;28;20038;-63
2023/05/07 06:08:56;;;;;;;3.65;3.30;;;;;;;15.38;92.59;101095.63;4983950;28;20031;-63
2023/05/07 06:11:21;;;;;;;4.88;3.60;;;;;;;15.43;93.07;101095.53;4992278;28;20048;-63
2023/05/07 06:13:46;;;;;;;6.60;3.08;;;;;;;15.49;92.41;101101.47;4984435;28;20137;-63
2023/05/07 06:16:12;;;;;;;4.40;3.03;;;;;;;15.57;91.65;101106.47;4982108;28;20053;-63
2023/05/07 06:18:37;;;;;;;4.75;3.38;;;;;;;15.60;91.53;101109.03;4990989;28;20041;-63
2023/05/07 06:21:03;;;;;;;4.80;2.85;;;;;;;15.66;91.12;101107.16;4983558;28;20091;-63
2023/05/07 06:23:28;;;;;;;5.95;3.10;;;;;;;15.74;91.15;101115.66;4984312;28;20038;-63
2023/05/07 06:25:53;;;;;;;6.15;3.67;;;;;;;15.86;91.36;101113.63;4983104;28;20146;-63
2023/05/07 06:28:19;;;;;;;3.25;2.95;;;;;;;15.92;89.47;101111.72;4987444;28;20042;-63
2023/05/07 06:30:44;;;;;;;4.38;2.95;;;;;;;16.04;89.47;101115.78;4982933;28;20520;-63
2023/05/07 06:33:10;;;;;;;4.47;3.08;;;;;;;16.13;87.99;101123.38;4986439;28;20261;-63
2023/05/07 06:35:35;;;;;;;5.88;3.38;;;;;;;16.35;88.03;101127.16;4988558;28;20042;-63
2023/05/07 06:38:01;;;;;;;7.05;2.88;;;;;;;16.48;86.82;101125.91;4981834;28;20035;-63
2023/05/07 06:40:26;;;;;;;4.25;2.58;;;;;;;16.62;85.79;101122.97;4979726;28;20042;-63
2023/05/07 06:42:52;;;;;;;5.32;2.83;;;;;;;16.62;85.45;101128.19;4987345;28;20049;-63
2023/05/07 06:45:17;;;;;;;2.72;2.30;;;;;;;16.77;84.54;101127.78;4986320;28;20638;-63
2023/05/07 06:47:42;;;;;;;8.30;3.20;;;;;;;16.79;83.77;101124.22;4979275;28;20027;-63
2023/05/07 06:50:09;;;;;;;3.67;2.72;;;;;;;16.93;83.41;101129.06;4984370;28;20035;-64
2023/05/07 06:52:35;;;;;;;4.35;3.10;;;;;;;17.00;84.30;101134.97;4981963;28;20153;-63
2023/05/07 06:55:00;;;;;;;4.72;2.55;;;;;;;17.13;82.92;101129.31;4981729;28;20420;-63
2023/05/07 06:57:26;;;;;;;3.40;2.60;;;;;;;17.21;82.78;101127.38;4986214;28;20034;-63
2023/05/07 06:59:51;;;;;;;5.53;2.58;;;;;;;17.22;81.84;101120.34;4987295;28;20041;-63
2023/05/07 07:02:17;;;;;;;3.70;2.40;;;;;;;17.32;82.18;101125.28;4989826;28;20034;-63
2023/05/07 07:04:42;;;;;;;4.35;2.80;;;;;;;17.54;82.02;101120.25;4982454;28;20731;-63
2023/05/07 07:07:07;;;;;;;6.05;2.35;;;;;;;17.61;80.88;101126.13;4981602;28;20062;-63
2023/05/07 07:09:33;;;;;;;4.28;2.20;;;;;;;17.62;79.51;101118.25;4990413;28;20042;-63
2023/05/07 07:11:58;;;;;;;2.75;2.20;;;;;;;17.52;79.64;101114.19;4979468;28;20060;-63
2023/05/07 07:14:24;;;;;;;4.82;1.92;;;;;;;17.54;78.93;101122.00;4991527;28;20125;-63
2023/05/07 07:16:49;;;;;;;3.78;2.50;;;;;;;17.53;80.41;101130.75;5001938;28;20041;-63
2023/05/07 07:19:17;;;;;;;6.80;2.55;;;;;;;17.64;79.51;101116.44;4991312;28;20172;-63
2023/05/07 07:21:42;;;;;;;3.72;2.33;;;;;;;17.71;78.66;101117.09;4982161;28;20539;-63
2023/05/07 07:24:08;;;;;;;4.53;2.58;;;;;;;17.83;80.08;101135.00;4981247;28;20109;-64
2023/05/07 07:26:33;;;;;;;3.83;2.50;;;;;;;17.88;78.55;101125.28;4986648;28;20034;-63
2023/05/07 07:28:59;;;;;;;3.35;2.30;;;;;;;17.83;78.15;101124.53;4985249;28;20607;-63
2023/05/07 07:31:24;;;;;;;3.42;2.60;;;;;;;17.97;78.65;101127.59;4988148;28;20049;-62
2023/05/07 07:33:50;;;;;;;4.75;2.25;;;;;;;18.00;78.66;101132.72;4981650;28;20870;-63
2023/05/07 07:36:15;;;;;;;9.40;2.63;;;;;;;18.17;78.50;101127.78;4984515;28;20044;-64
2023/05/07 07:38:41;;;;;;;3.97;2.25;;;;;;;18.27;77.29;101125.72;4988619;28;20594;-63
2023/05/07 07:41:08;;;;;;;4.72;2.30;;;;;;;18.22;76.49;101125.88;4982919;28;20040;-63
2023/05/07 07:43:33;;;;;;;5.50;2.38;;;;;;;18.11;76.64;101127.13;4981802;28;20038;-63
2023/05/07 07:45:59;;;;;;;4.57;2.45;;;;;;;18.19;77.48;101136.44;5010476;28;20037;-63
2023/05/07 07:48:25;;;;;;;3.15;2.10;;;;;;;18.41;77.60;101140.03;4981216;28;20041;-63
2023/05/07 07:50:53;;;;;;;2.95;2.15;;;;;;;18.60;76.67;101132.41;4981356;28;20030;-63
2023/05/07 07:53:18;;;;;;;5.32;2.60;;;;;;;18.57;74.51;101114.19;4979675;28;20115;-63
2023/05/07 07:55:44;;;;;;;4.38;2.40;;;;;;;18.62;74.64;101125.31;4980249;28;20034;-64
2023/05/07 07:58:09;;;;;;;4.78;2.65;;;;;;;18.60;75.26;101137.63;4979411;28;20125;-63
2023/05/07 08:00:35;;;;;;;5.85;2.30;;;;;;;18.81;75.02;101134.25;4991900;28;20470;-63
2023/05/07 08:03:02;;;;;;;4.70;2.30;;;;;;;18.93;75.29;101140.84;4981662;28;20440;-63
2023/05/07 08:05:28;;;;;;;4.38;2.10;;;;;;;19.10;74.63;101137.59;5018405;28;20033;-63
2023/05/07 08:07:54;;;;;;;3.67;2.25;;;;;;;18.93;73.74;101125.97;4984409;28;20048;-64
2023/05/07 08:10:22;;;;;;;4.03;2.03;;;;;;;19.18;73.35;101125.03;4980097;28;20441;-63
2023/05/07 08:12:49;;;;;;;3.05;1.70;;;;;;;19.33;74.39;101141.03;4984815;28;20046;-63
2023/05/07 08:15:14;;;;;;;4.30;2.17;;;;;;;19.53;72.77;101127.19;4982806;28;20088;-63
2023/05/07 08:17:40;;;;;;;3.50;2.10;;;;;;;19.56;72.30;101124.44;4979976;28;20051;-63
2023/05/07 08:20:06;;;;;;;2.78;1.67;;;;;;;19.80;71.64;101122.63;4987483;28;20064;-63
2023/05/07 08:22:31;;;;;;;2.38;1.85;;;;;;;19.74;70.25;101107.09;4981260;28;20034;-63
2023/05/07 08:24:57;;;;;;;5.57;2.47;;;;;;;19.78;70.54;101119.16;4983491;28;20057;-64
2023/05/07 08:27:22;;;;;;;6.60;2.05;;;;;;;19.81;70.41;101117.31;4988359;28;20088;-63
2023/05/07 08:29:48;;;;;;;3.40;2.10;;;;;;;19.98;70.37;101120.09;4990144;28;20061;-62
2023/05/07 08:32:14;;;;;;;3.67;1.92;;;;;;;20.00;70.55;101122.66;4982937;28;20045;-63
2023/05/07 08:34:40;;;;;;;3.92;2.20;;;;;;;20.09;70.04;101109.16;4983330;28;20048;-62
2023/05/07 08:37:05;;;;;;;2.05;1.80;;;;;;;20.08;69.70;101115.31;4994348;28;20096;-63
2023/05/07 08:39:30;;;;;;;3.53;2.22;;;;;;;20.03;70.35;101122.53;4984140;28;20432;-63
2023/05/07 08:42:00;;;;;;;4.10;1.98;;;;;;;20.10;69.81;101121.34;4976608;28;20030;-62
2023/05/07 08:44:29;;;;;;;6.03;2.47;;;;;;;20.09;69.43;101122.28;4982962;28;20691;-63
2023/05/07 08:46:58;;;;;;;3.72;2.15;;;;;;;20.21;69.34;101113.03;4986008;28;20050;-62
2023/05/07 08:49:23;;;;;;;5.15;1.90;;;;;;;20.18;68.40;101104.34;4978534;28;20042;-62
2023/05/07 08:51:49;;;;;;;4.22;2.50;;;;;;;20.17;69.29;101123.66;4980233;28;20053;-62
2023/05/07 08:54:19;;;;;;;3.17;2.00;;;;;;;20.28;68.54;101102.19;4980200;28;20030;-62
2023/05/07 08:56:45;;;;;;;2.67;1.80;;;;;;;20.23;67.81;101098.06;4994373;28;20153;-62
2023/05/07 08:59:10;;;;;;;4.78;2.10;;;;;;;20.36;68.98;101113.25;4979078;28;20073;-62
2023/05/07 09:01:36;;;;;;;3.63;2.00;;;;;;;20.46;69.69;101117.16;4990960;28;20025;-62
2023/05/07 09:04:01;;;;;;;4.13;2.20;;;;;;;20.47;68.50;101100.50;4980182;28;20117;-62
2023/05/07 09:06:27;;;;;;;3.20;2.08;;;;;;;20.39;66.78;101080.75;4992318;28;20025;-62
2023/05/07 09:08:54;;;;;;;4.15;2.40;;;;;;;20.29;67.12;101089.91;4979447;28;20025;-62
2023/05/07 09:11:23;;;;;;;3.42;2.45;;;;;;;20.39;67.42;101094.72;4990187;28;20041;-63
2023/05/07 09:13:53;;;;;;;2.67;2.17;;;;;;;20.61;66.31;101079.72;4976288;28;20130;-62
2023/05/07 09:16:21;;;;;;;2.95;2.10;;;;;;;20.50;67.29;101095.09;4980158;28;20120;-62
2023/05/07 09:18:47;;;;;;;3.65;2.20;;;;;;;20.59;67.76;101096.47;4994367;28;20056;-63
2023/05/07 09:21:17;;;;;;;3.00;2.03;;;;;;;20.64;65.87;101065.59;4983437;28;20034;-62
2023/05/07 09:23:43;;;;;;;4.32;2.30;;;;;;;20.59;67.05;101086.81;4980302;28;20034;-62
2023/05/07 09:26:14;;;;;;;2.72;2.00;;;;;;;20.45;67.45;101097.06;4976737;28;20088;-63
2023/05/07 09:28:41;;;;;;;2.97;2.22;;;;;;;20.44;68.33;101098.00;4977117;28;20794;-62
2023/05/07 09:31:07;;;;;;;3.97;2.10;;;;;;;20.38;67.69;101087.75;4987033;28;20030;-62
2023/05/07 09:33:32;;;;;;;3.30;2.10;;;;;;;20.28;67.80;101096.94;4979454;28;20786;-62
2023/05/07 09:35:57;;;;;;;4.43;2.22;;;;;;;20.38;66.99;101086.91;4988086;28;20081;-62
2023/05/07 09:38:23;;;;;;;4.07;2.03;;;;;;;20.50;66.52;101092.47;5018635;28;20042;-62
2023/05/07 09:41:11;;;;;;;2.75;1.90;;;;;;;20.74;65.73;101079.19;4979973;28;20133;-62
2023/05/07 09:43:39;;;;;;;3.00;1.90;;;;;;;21.07;64.90;101069.78;4974341;28;20039;-62
2023/05/07 09:46:16;;;;;;;2.67;1.98;;;;;;;21.03;64.31;101068.19;4974166;28;20042;-62
2023/05/07 09:48:43;;;;;;;3.35;1.80;;;;;;;21.08;64.97;101074.09;4985437;28;20057;-62
2023/05/07 09:51:50;;;;;;;2.97;2.22;;;;;;;21.21;64.13;101068.19;4979259;28;20022;-62
2023/05/07 09:54:17;;;;;;;2.60;1.90;;;;;;;21.48;62.68;101047.63;4980414;28;20046;-62
2023/05/07 09:56:44;;;;;;;4.78;2.10;;;;;;;21.34;63.38;101065.84;4979874;28;20023;-62
2023/05/07 09:59:14;;;;;;;4.97;2.20;;;;;;;21.48;63.26;101057.28;4985489;28;20038;-62
2023/05/07 10:01:41;;;;;;;4.72;2.20;;;;;;;21.85;64.73;101080.88;4987866;28;20512;-62
2023/05/07 10:04:10;;;;;;;6.30;2.38;;;;;;;21.89;61.84;101035.06;4978015;28;20048;-62
2023/05/07 10:06:37;;;;;;;2.75;2.17;;;;;;;22.30;62.60;101044.31;4986640;28;20042;-64
2023/05/07 10:09:05;;;;;;;3.33;2.22;;;;;;;22.44;60.00;101012.03;4979153;28;20033;-62
2023/05/07 10:11:33;;;;;;;3.35;2.53;;;;;;;22.04;60.83;101023.75;4987786;28;20034;-62
2023/05/07 10:13:58;;;;;;;4.15;2.22;;;;;;;21.94;63.11;101064.63;4976533;28;20035;-62
2023/05/07 10:16:25;;;;;;;3.45;1.77;;;;;;;22.04;63.33;101057.97;5009409;28;20042;-62
2023/05/07 10:18:51;;;;;;;2.38;1.90;;;;;;;22.25;62.26;101040.22;4990854;28;20045;-63
2023/05/07 10:21:22;;;;;;;3.22;2.22;;;;;;;21.94;61.77;101037.47;4981052;28;20109;-62
2023/05/07 10:23:57;;;;;;;6.13;3.00;;;;;;;21.82;61.46;101031.03;4980957;28;20391;-62
2023/05/07 10:26:24;;;;;;;2.72;1.77;;;;;;;21.89;61.52;101027.16;4979025;28;20069;-62
2023/05/07 10:29:01;;;;;;;3.42;1.90;;;;;;;22.03;62.06;101034.34;4978583;28;20034;-63
2023/05/07 10:32:07;;;;;;;3.53;1.92;;;;;;;21.71;62.24;101042.09;4983100;28;20053;-61
2023/05/07 10:34:39;;;;;;;4.22;2.00;;;;;;;21.66;61.83;101038.00;4981552;28;20089;-62
2023/05/07 10:37:05;;;;;;;4.75;2.00;;;;;;;21.81;62.84;101053.03;5011750;28;20030;-62
2023/05/07 10:39:31;;;;;;;4.25;2.03;;;;;;;22.04;62.07;101041.31;4981290;28;20172;-63
2023/05/07 10:41:56;;;;;;;3.78;2.20;;;;;;;22.06;60.80;101015.75;4978871;28;20034;-62
2023/05/07 10:44:29;;;;;;;3.17;2.35;;;;;;;22.37;59.77;101005.34;4991690;28;20489;-62
2023/05/07 10:47:15;;;;;;;4.32;2.30;;;;;;;22.75;60.04;101005.94;4987194;28;20051;-63
2023/05/07 10:49:43;;;;;;;4.47;2.05;;;;;;;22.75;59.37;100995.38;4976273;28;20439;-62
2023/05/07 10:52:24;;;;;;;3.45;2.05;;;;;;;22.72;59.42;100993.78;4982762;28;20038;-62
2023/05/07 10:55:15;;;;;;;2.67;1.80;;;;;;;22.84;59.28;100992.25;4986466;28;20073;-62
2023/05/07 10:57:40;;;;;;;4.20;2.08;;;;;;;22.86;58.45;100971.91;4990424;28;20038;-62
2023/05/07 11:00:24;;;;;;;3.42;1.63;;;;;;;23.06;58.94;100979.56;4986877;28;20128;-62
2023/05/07 11:03:01;;;;;;;5.43;1.70;;;;;;;23.29;56.61;100936.09;4985904;28;20057;-62
2023/05/07 11:05:31;;;;;;;3.55;2.05;;;;;;;23.31;58.15;100971.97;4989230;28;20034;-62
2023/05/07 11:08:01;;;;;;;5.13;2.10;;;;;;;23.13;57.00;100945.78;4981635;28;20088;-62
2023/05/07 11:10:49;;;;;;;2.25;1.73;;;;;;;22.96;55.97;100922.16;4982955;28;20042;-62
2023/05/07 11:13:16;;;;;;;2.80;1.80;;;;;;;22.98;56.55;100936.13;4982990;28;20844;-62
2023/05/07 11:15:46;;;;;;;3.70;2.00;;;;;;;23.05;57.29;100946.22;4993488;28;20038;-62
2023/05/07 11:18:13;;;;;;;5.75;2.97;;;;;;;23.12;57.67;100963.41;4982341;28;20127;-62
2023/05/07 11:20:44;;;;;;;3.60;1.73;;;;;;;22.97;56.17;100930.00;4989129;28;20841;-62